Suehiro Maru No.8 — JK5423 — position and weather

sailwx.info

Track history (hours):
 
Tides and Currents Weather Stations Pressure Air Temp Water Temp Dewpoint Dewpoint Depression Visibility Wind Speed Wind Dir Waves Ship Positions

Suehiro Maru No.8

Last reported at 2014-Sep-26 02:04 UTC. Time now 2014-Oct-02 00:26 UTC.
Position N 34°05' E 134°48'.

Length 88 m; draft 4.2 m.

Type: Cargo ship. MMSI: 431400446.

Date/timePositionNaut miles runAvg speedWind from/ knotsBaromVisibWave heightAir tempDewpointWater temp
2014-Sep-26 02:04N 34°05' E 134°48'109 9.2
2014-Sep-25 14:17N 34°09' E 132°37'1412.5
2014-Sep-25 13:09N 33°56' E 132°31'9 0.3
2014-Sep-24 04:27N 34°05' E 132°35'360 8.0
2014-Sep-22 07:26N 35°12' E 139°45'1011.0
2014-Sep-22 06:34N 35°21' E 139°42'1111.0
2014-Sep-22 05:33N 35°30' E 139°50'5 5.2
2014-Sep-22 04:33N 35°35' E 139°52'4 3.4
2014-Sep-22 03:30N 35°37' E 139°48'0 0.0
2014-Sep-22 02:32N 35°37' E 139°49'0 0.0
2014-Sep-22 01:24N 35°37' E 139°49'0 0.0
2014-Sep-22 00:33N 35°37' E 139°49'0 0.0
2014-Sep-21 23:34N 35°37' E 139°49'0 0.0
2014-Sep-21 22:33N 35°37' E 139°49'3 2.6
2014-Sep-21 21:33N 35°35' E 139°51'1 1.4
2014-Sep-21 20:33N 35°35' E 139°52'0 0.0
2014-Sep-21 18:33N 35°35' E 139°52'7 6.8
2014-Sep-21 17:33N 35°28' E 139°51'7 6.6
2014-Sep-21 16:33N 35°22' E 139°53'0 0.0
2014-Sep-21 15:33N 35°22' E 139°53'0 0.0
2014-Sep-21 14:33N 35°22' E 139°53'0 0.0
2014-Sep-21 13:34N 35°22' E 139°53'0 0.0
2014-Sep-21 12:33N 35°22' E 139°53'0 0.0
2014-Sep-21 11:32N 35°22' E 139°53'0 0.0
2014-Sep-21 10:33N 35°22' E 139°53'0 0.0
2014-Sep-21 09:33N 35°22' E 139°53'0 0.0
2014-Sep-21 08:33N 35°22' E 139°53'0 0.0
2014-Sep-21 07:33N 35°22' E 139°53'0 0.0
2014-Sep-21 06:29N 35°22' E 139°53'0 0.0
2014-Sep-21 05:33N 35°22' E 139°53'0 0.0
2014-Sep-21 04:34N 35°22' E 139°53'8 7.6
2014-Sep-21 03:31N 35°30' E 139°54'5 2.3
2014-Sep-21 01:13N 35°28' E 140°00'0 0.0
2014-Sep-20 23:25N 35°28' E 140°00'2 0.5
2014-Sep-20 20:08N 35°29' E 139°58'5 8.0
2014-Sep-20 19:32N 35°29' E 139°53'7 6.9
2014-Sep-20 18:33N 35°22' E 139°53'0 0.0
2014-Sep-20 17:33N 35°22' E 139°53'0 0.0
2014-Sep-20 16:33N 35°22' E 139°53'0 0.0
2014-Sep-20 15:33N 35°22' E 139°53'0 0.0
2014-Sep-20 14:33N 35°22' E 139°53'0 0.0
2014-Sep-20 13:32N 35°22' E 139°53'0 0.0
2014-Sep-20 12:33N 35°22' E 139°53'0 0.0
2014-Sep-20 11:33N 35°22' E 139°53'0 0.0
2014-Sep-20 10:34N 35°22' E 139°53'0 0.0
2014-Sep-20 09:33N 35°22' E 139°53'0 0.0
2014-Sep-20 08:34N 35°22' E 139°53'0 0.0
2014-Sep-20 07:33N 35°22' E 139°53'0 0.4
2014-Sep-20 06:32N 35°22' E 139°52'2 1.7
2014-Sep-20 05:20N 35°24' E 139°50'0 0.0
2014-Sep-20 03:32N 35°24' E 139°50'7 7.2
2014-Sep-20 02:34N 35°19' E 139°44'  
Track history (hours):
 
Tides and Currents Weather Stations Pressure Air Temp Water Temp Dewpoint Dewpoint Depression Visibility Wind Speed Wind Dir Waves Ship Positions

Suehiro Maru No.8

Last reported at 2014-Sep-26 02:04 UTC. Time now 2014-Oct-02 00:26 UTC.
Position N 34°05' E 134°48'.

Length 88 m; draft 4.2 m.

Type: Cargo ship. MMSI: 431400446.

Date/timePositionNaut miles runAvg speedWind from/ knotsBaromVisibWave heightAir tempDewpointWater temp
2014-Sep-26 02:04N 34°05' E 134°48'109 9.2
2014-Sep-25 14:17N 34°09' E 132°37'1412.5
2014-Sep-25 13:09N 33°56' E 132°31'9 0.3
2014-Sep-24 04:27N 34°05' E 132°35'360 8.0
2014-Sep-22 07:26N 35°12' E 139°45'1011.0
2014-Sep-22 06:34N 35°21' E 139°42'1111.0
2014-Sep-22 05:33N 35°30' E 139°50'5 5.2
2014-Sep-22 04:33N 35°35' E 139°52'4 3.4
2014-Sep-22 03:30N 35°37' E 139°48'0 0.0
2014-Sep-22 02:32N 35°37' E 139°49'0 0.0
2014-Sep-22 01:24N 35°37' E 139°49'0 0.0
2014-Sep-22 00:33N 35°37' E 139°49'0 0.0
2014-Sep-21 23:34N 35°37' E 139°49'0 0.0
2014-Sep-21 22:33N 35°37' E 139°49'3 2.6
2014-Sep-21 21:33N 35°35' E 139°51'1 1.4
2014-Sep-21 20:33N 35°35' E 139°52'0 0.0
2014-Sep-21 18:33N 35°35' E 139°52'7 6.8
2014-Sep-21 17:33N 35°28' E 139°51'7 6.6
2014-Sep-21 16:33N 35°22' E 139°53'0 0.0
2014-Sep-21 15:33N 35°22' E 139°53'0 0.0
2014-Sep-21 14:33N 35°22' E 139°53'0 0.0
2014-Sep-21 13:34N 35°22' E 139°53'0 0.0
2014-Sep-21 12:33N 35°22' E 139°53'0 0.0
2014-Sep-21 11:32N 35°22' E 139°53'0 0.0
2014-Sep-21 10:33N 35°22' E 139°53'0 0.0
2014-Sep-21 09:33N 35°22' E 139°53'0 0.0
2014-Sep-21 08:33N 35°22' E 139°53'0 0.0
2014-Sep-21 07:33N 35°22' E 139°53'0 0.0
2014-Sep-21 06:29N 35°22' E 139°53'0 0.0
2014-Sep-21 05:33N 35°22' E 139°53'0 0.0
2014-Sep-21 04:34N 35°22' E 139°53'8 7.6
2014-Sep-21 03:31N 35°30' E 139°54'5 2.3
2014-Sep-21 01:13N 35°28' E 140°00'0 0.0
2014-Sep-20 23:25N 35°28' E 140°00'2 0.5
2014-Sep-20 20:08N 35°29' E 139°58'5 8.0
2014-Sep-20 19:32N 35°29' E 139°53'7 6.9
2014-Sep-20 18:33N 35°22' E 139°53'0 0.0
2014-Sep-20 17:33N 35°22' E 139°53'0 0.0
2014-Sep-20 16:33N 35°22' E 139°53'0 0.0
2014-Sep-20 15:33N 35°22' E 139°53'0 0.0
2014-Sep-20 14:33N 35°22' E 139°53'0 0.0
2014-Sep-20 13:32N 35°22' E 139°53'0 0.0
2014-Sep-20 12:33N 35°22' E 139°53'0 0.0
2014-Sep-20 11:33N 35°22' E 139°53'0 0.0
2014-Sep-20 10:34N 35°22' E 139°53'0 0.0
2014-Sep-20 09:33N 35°22' E 139°53'0 0.0
2014-Sep-20 08:34N 35°22' E 139°53'0 0.0
2014-Sep-20 07:33N 35°22' E 139°53'0 0.4
2014-Sep-20 06:32N 35°22' E 139°52'2 1.7
2014-Sep-20 05:20N 35°24' E 139°50'0 0.0
2014-Sep-20 03:32N 35°24' E 139°50'7 7.2
2014-Sep-20 02:34N 35°19' E 139°44'  

Dump ship's entire track history